sensor_id;sensor_type;location;lat;lon;timestamp;P1;durP1;ratioP1;P2;durP2;ratioP2
43511;SDS011;34054;52.100;5.116;2022-08-01T00:00:12;12.38;;;3.90;;
43511;SDS011;34054;52.100;5.116;2022-08-01T00:00:44;4.78;;;3.92;;
43511;SDS011;34054;52.100;5.116;2022-08-01T00:01:16;4.93;;;3.42;;
43511;SDS011;34054;52.100;5.116;2022-08-01T00:01:48;5.22;;;4.03;;
43511;SDS011;34054;52.100;5.116;2022-08-01T00:02:20;6.07;;;3.42;;
43511;SDS011;34054;52.100;5.116;2022-08-01T00:02:51;3.47;;;3.08;;
43511;SDS011;34054;52.100;5.116;2022-08-01T00:03:24;2.63;;;2.42;;
43511;SDS011;34054;52.100;5.116;2022-08-01T00:03:55;4.22;;;3.15;;
43511;SDS011;34054;52.100;5.116;2022-08-01T00:04:28;5.82;;;4.25;;
43511;SDS011;34054;52.100;5.116;2022-08-01T00:05:01;12.18;;;4.20;;
43511;SDS011;34054;52.100;5.116;2022-08-01T00:05:33;4.30;;;3.10;;
43511;SDS011;34054;52.100;5.116;2022-08-01T00:06:04;11.38;;;3.53;;
43511;SDS011;34054;52.100;5.116;2022-08-01T00:06:37;4.82;;;3.80;;
43511;SDS011;34054;52.100;5.116;2022-08-01T00:07:08;3.72;;;2.78;;
43511;SDS011;34054;52.100;5.116;2022-08-01T00:07:40;3.65;;;3.03;;
43511;SDS011;34054;52.100;5.116;2022-08-01T00:08:13;5.30;;;3.42;;
43511;SDS011;34054;52.100;5.116;2022-08-01T00:08:44;7.82;;;5.00;;
43511;SDS011;34054;52.100;5.116;2022-08-01T00:09:16;4.85;;;3.05;;
43511;SDS011;34054;52.100;5.116;2022-08-01T00:09:49;7.38;;;3.83;;
43511;SDS011;34054;52.100;5.116;2022-08-01T00:10:20;2.97;;;2.70;;
43511;SDS011;34054;52.100;5.116;2022-08-01T00:10:52;7.72;;;3.45;;
43511;SDS011;34054;52.100;5.116;2022-08-01T00:11:24;3.95;;;2.88;;
43511;SDS011;34054;52.100;5.116;2022-08-01T00:11:56;5.32;;;4.82;;
43511;SDS011;34054;52.100;5.116;2022-08-01T00:12:29;7.30;;;4.35;;
43511;SDS011;34054;52.100;5.116;2022-08-01T00:13:00;11.23;;;6.00;;
43511;SDS011;34054;52.100;5.116;2022-08-01T00:13:32;10.90;;;3.28;;
43511;SDS011;34054;52.100;5.116;2022-08-01T00:14:04;15.20;;;4.07;;
43511;SDS011;34054;52.100;5.116;2022-08-01T00:14:36;4.10;;;2.75;;
43511;SDS011;34054;52.100;5.116;2022-08-01T00:15:09;9.50;;;3.28;;
43511;SDS011;34054;52.100;5.116;2022-08-01T00:15:46;4.60;;;3.53;;
43511;SDS011;34054;52.100;5.116;2022-08-01T00:16:17;3.95;;;2.92;;
43511;SDS011;34054;52.100;5.116;2022-08-01T00:16:49;4.78;;;3.83;;
43511;SDS011;34054;52.100;5.116;2022-08-01T00:17:21;4.82;;;3.65;;
43511;SDS011;34054;52.100;5.116;2022-08-01T00:17:53;3.33;;;2.67;;
43511;SDS011;34054;52.100;5.116;2022-08-01T00:18:25;10.40;;;3.75;;
43511;SDS011;34054;52.100;5.116;2022-08-01T00:18:57;6.80;;;4.03;;
43511;SDS011;34054;52.100;5.116;2022-08-01T00:19:30;7.43;;;4.45;;
43511;SDS011;34054;52.100;5.116;2022-08-01T00:20:03;3.85;;;2.80;;
43511;SDS011;34054;52.100;5.116;2022-08-01T00:20:41;6.75;;;5.43;;
43511;SDS011;34054;52.100;5.116;2022-08-01T00:21:13;6.65;;;3.95;;
43511;SDS011;34054;52.100;5.116;2022-08-01T00:21:44;9.13;;;3.80;;
43511;SDS011;34054;52.100;5.116;2022-08-01T00:22:17;4.35;;;3.65;;
43511;SDS011;34054;52.100;5.116;2022-08-01T00:22:48;4.50;;;3.95;;
43511;SDS011;34054;52.100;5.116;2022-08-01T00:23:20;5.05;;;4.10;;
43511;SDS011;34054;52.100;5.116;2022-08-01T00:23:52;8.18;;;4.50;;
43511;SDS011;34054;52.100;5.116;2022-08-01T00:24:24;4.43;;;3.97;;
43511;SDS011;34054;52.100;5.116;2022-08-01T00:24:56;4.63;;;3.65;;
43511;SDS011;34054;52.100;5.116;2022-08-01T00:25:27;3.85;;;3.47;;
43511;SDS011;34054;52.100;5.116;2022-08-01T00:26:00;6.28;;;4.05;;
43511;SDS011;34054;52.100;5.116;2022-08-01T00:26:31;4.20;;;3.42;;
43511;SDS011;34054;52.100;5.116;2022-08-01T00:27:03;7.72;;;4.68;;
43511;SDS011;34054;52.100;5.116;2022-08-01T00:27:36;5.68;;;3.97;;
43511;SDS011;34054;52.100;5.116;2022-08-01T00:28:07;4.25;;;3.53;;
43511;SDS011;34054;52.100;5.116;2022-08-01T00:28:39;9.23;;;4.97;;
43511;SDS011;34054;52.100;5.116;2022-08-01T00:29:12;5.88;;;4.32;;
43511;SDS011;34054;52.100;5.116;2022-08-01T00:29:44;7.45;;;5.18;;
43511;SDS011;34054;52.100;5.116;2022-08-01T00:30:15;4.38;;;3.10;;
43511;SDS011;34054;52.100;5.116;2022-08-01T00:30:48;4.97;;;3.00;;
43511;SDS011;34054;52.100;5.116;2022-08-01T00:31:20;4.90;;;4.22;;
43511;SDS011;34054;52.100;5.116;2022-08-01T00:31:51;5.15;;;4.25;;
43511;SDS011;34054;52.100;5.116;2022-08-01T00:32:24;5.18;;;4.68;;
43511;SDS011;34054;52.100;5.116;2022-08-01T00:32:56;5.60;;;3.88;;
43511;SDS011;34054;52.100;5.116;2022-08-01T00:33:27;7.10;;;4.85;;
43511;SDS011;34054;52.100;5.116;2022-08-01T00:34:00;5.60;;;4.93;;
43511;SDS011;34054;52.100;5.116;2022-08-01T00:34:33;5.93;;;5.10;;
43511;SDS011;34054;52.100;5.116;2022-08-01T00:35:05;7.95;;;5.10;;
43511;SDS011;34054;52.100;5.116;2022-08-01T00:35:38;7.18;;;6.45;;
43511;SDS011;34054;52.100;5.116;2022-08-01T00:36:09;5.05;;;4.25;;
43511;SDS011;34054;52.100;5.116;2022-08-01T00:36:41;4.55;;;4.10;;
43511;SDS011;34054;52.100;5.116;2022-08-01T00:37:14;12.85;;;5.53;;
43511;SDS011;34054;52.100;5.116;2022-08-01T00:37:46;6.85;;;6.18;;
43511;SDS011;34054;52.100;5.116;2022-08-01T00:38:18;5.72;;;4.60;;
43511;SDS011;34054;52.100;5.116;2022-08-01T00:38:50;8.40;;;6.25;;
43511;SDS011;34054;52.100;5.116;2022-08-01T00:39:22;7.68;;;6.05;;
43511;SDS011;34054;52.100;5.116;2022-08-01T00:39:54;5.80;;;5.10;;
43511;SDS011;34054;52.100;5.116;2022-08-01T00:40:26;7.00;;;5.45;;
43511;SDS011;34054;52.100;5.116;2022-08-01T00:40:57;10.98;;;6.85;;
43511;SDS011;34054;52.100;5.116;2022-08-01T00:41:30;5.32;;;4.82;;
43511;SDS011;34054;52.100;5.116;2022-08-01T00:42:05;10.02;;;5.63;;
43511;SDS011;34054;52.100;5.116;2022-08-01T00:42:38;7.55;;;6.18;;
43511;SDS011;34054;52.100;5.116;2022-08-01T00:43:12;8.50;;;5.35;;
43511;SDS011;34054;52.100;5.116;2022-08-01T00:43:43;8.52;;;6.22;;
43511;SDS011;34054;52.100;5.116;2022-08-01T00:44:15;8.57;;;5.72;;
43511;SDS011;34054;52.100;5.116;2022-08-01T00:44:48;11.10;;;7.50;;
43511;SDS011;34054;52.100;5.116;2022-08-01T00:45:20;7.32;;;6.57;;
43511;SDS011;34054;52.100;5.116;2022-08-01T00:45:51;9.45;;;5.78;;
43511;SDS011;34054;52.100;5.116;2022-08-01T00:46:24;6.53;;;5.85;;
43511;SDS011;34054;52.100;5.116;2022-08-01T00:46:55;7.95;;;4.93;;
43511;SDS011;34054;52.100;5.116;2022-08-01T00:47:27;7.82;;;5.82;;
43511;SDS011;34054;52.100;5.116;2022-08-01T00:48:00;8.50;;;7.45;;
43511;SDS011;34054;52.100;5.116;2022-08-01T00:48:31;9.15;;;5.97;;
43511;SDS011;34054;52.100;5.116;2022-08-01T00:49:03;6.25;;;5.65;;
43511;SDS011;34054;52.100;5.116;2022-08-01T00:49:37;6.90;;;5.20;;
43511;SDS011;34054;52.100;5.116;2022-08-01T00:50:09;15.57;;;5.65;;
43511;SDS011;34054;52.100;5.116;2022-08-01T00:50:41;4.90;;;4.43;;
43511;SDS011;34054;52.100;5.116;2022-08-01T00:51:15;14.07;;;6.38;;
43511;SDS011;34054;52.100;5.116;2022-08-01T00:51:48;7.63;;;5.70;;
43511;SDS011;34054;52.100;5.116;2022-08-01T00:52:19;7.28;;;6.13;;
43511;SDS011;34054;52.100;5.116;2022-08-01T00:52:53;15.60;;;6.85;;
43511;SDS011;34054;52.100;5.116;2022-08-01T00:53:26;7.18;;;6.03;;
43511;SDS011;34054;52.100;5.116;2022-08-01T00:53:57;8.93;;;6.45;;
43511;SDS011;34054;52.100;5.116;2022-08-01T00:54:31;6.75;;;5.32;;
43511;SDS011;34054;52.100;5.116;2022-08-01T00:55:03;9.88;;;6.85;;
43511;SDS011;34054;52.100;5.116;2022-08-01T00:55:35;7.85;;;5.50;;
43511;SDS011;34054;52.100;5.116;2022-08-01T00:56:07;5.82;;;5.20;;
43511;SDS011;34054;52.100;5.116;2022-08-01T00:56:40;6.60;;;5.65;;
43511;SDS011;34054;52.100;5.116;2022-08-01T00:57:12;7.82;;;7.07;;
43511;SDS011;34054;52.100;5.116;2022-08-01T00:57:45;11.15;;;5.47;;
43511;SDS011;34054;52.100;5.116;2022-08-01T00:58:18;11.05;;;6.50;;
43511;SDS011;34054;52.100;5.116;2022-08-01T00:58:51;9.25;;;6.57;;
43511;SDS011;34054;52.100;5.116;2022-08-01T00:59:25;6.43;;;5.20;;
43511;SDS011;34054;52.100;5.116;2022-08-01T00:59:58;12.35;;;5.10;;
43511;SDS011;34054;52.100;5.116;2022-08-01T01:00:30;8.18;;;6.32;;
43511;SDS011;34054;52.100;5.116;2022-08-01T01:01:04;9.80;;;6.35;;
43511;SDS011;34054;52.100;5.116;2022-08-01T01:01:36;8.88;;;6.22;;
43511;SDS011;34054;52.100;5.116;2022-08-01T01:02:07;8.75;;;7.10;;
43511;SDS011;34054;52.100;5.116;2022-08-01T01:02:40;8.23;;;6.47;;
43511;SDS011;34054;52.100;5.116;2022-08-01T01:03:15;6.72;;;5.80;;
43511;SDS011;34054;52.100;5.116;2022-08-01T01:03:47;10.52;;;6.00;;
43511;SDS011;34054;52.100;5.116;2022-08-01T01:04:19;8.90;;;6.07;;
43511;SDS011;34054;52.100;5.116;2022-08-01T01:04:52;9.55;;;5.57;;
43511;SDS011;34054;52.100;5.116;2022-08-01T01:05:24;7.90;;;7.10;;
43511;SDS011;34054;52.100;5.116;2022-08-01T01:06:00;9.55;;;5.45;;
43511;SDS011;34054;52.100;5.116;2022-08-01T01:06:47;8.32;;;6.68;;
43511;SDS011;34054;52.100;5.116;2022-08-01T01:07:34;6.88;;;4.72;;
43511;SDS011;34054;52.100;5.116;2022-08-01T01:08:19;8.50;;;6.03;;
43511;SDS011;34054;52.100;5.116;2022-08-01T01:09:12;9.27;;;6.30;;
43511;SDS011;34054;52.100;5.116;2022-08-01T01:09:58;7.53;;;4.95;;
43511;SDS011;34054;52.100;5.116;2022-08-01T01:10:40;5.65;;;5.15;;
43511;SDS011;34054;52.100;5.116;2022-08-01T01:11:25;6.53;;;5.75;;
43511;SDS011;34054;52.100;5.116;2022-08-01T01:12:09;9.43;;;6.68;;
43511;SDS011;34054;52.100;5.116;2022-08-01T01:12:54;9.68;;;5.65;;
43511;SDS011;34054;52.100;5.116;2022-08-01T01:13:34;6.80;;;5.47;;
43511;SDS011;34054;52.100;5.116;2022-08-01T01:14:18;7.10;;;6.38;;
43511;SDS011;34054;52.100;5.116;2022-08-01T01:15:03;8.93;;;5.82;;
43511;SDS011;34054;52.100;5.116;2022-08-01T01:15:43;9.57;;;4.90;;
43511;SDS011;34054;52.100;5.116;2022-08-01T01:16:23;8.40;;;6.80;;
43511;SDS011;34054;52.100;5.116;2022-08-01T01:16:56;5.45;;;4.90;;
43511;SDS011;34054;52.100;5.116;2022-08-01T01:17:35;8.57;;;5.05;;
43511;SDS011;34054;52.100;5.116;2022-08-01T01:18:17;7.78;;;6.10;;
43511;SDS011;34054;52.100;5.116;2022-08-01T01:18:57;8.65;;;4.50;;
43511;SDS011;34054;52.100;5.116;2022-08-01T01:19:33;7.57;;;6.07;;
43511;SDS011;34054;52.100;5.116;2022-08-01T01:20:18;4.53;;;3.90;;
43511;SDS011;34054;52.100;5.116;2022-08-01T01:22:27;8.57;;;6.68;;
43511;SDS011;34054;52.100;5.116;2022-08-01T01:23:24;16.90;;;7.10;;
43511;SDS011;34054;52.100;5.116;2022-08-01T01:24:17;14.60;;;5.43;;
43511;SDS011;34054;52.100;5.116;2022-08-01T01:25:07;4.18;;;3.78;;
43511;SDS011;34054;52.100;5.116;2022-08-01T01:25:59;8.57;;;6.30;;
43511;SDS011;34054;52.100;5.116;2022-08-01T01:26:52;6.78;;;4.95;;
43511;SDS011;34054;52.100;5.116;2022-08-01T01:27:36;6.65;;;5.00;;
43511;SDS011;34054;52.100;5.116;2022-08-01T01:28:22;6.28;;;4.72;;
43511;SDS011;34054;52.100;5.116;2022-08-01T01:29:08;7.43;;;6.50;;
43511;SDS011;34054;52.100;5.116;2022-08-01T01:29:48;13.27;;;5.80;;
43511;SDS011;34054;52.100;5.116;2022-08-01T01:30:24;9.50;;;4.95;;
43511;SDS011;34054;52.100;5.116;2022-08-01T01:31:04;6.90;;;5.57;;
43511;SDS011;34054;52.100;5.116;2022-08-01T01:31:42;9.95;;;6.45;;
43511;SDS011;34054;52.100;5.116;2022-08-01T01:32:23;6.05;;;5.50;;
43511;SDS011;34054;52.100;5.116;2022-08-01T01:33:05;8.60;;;5.88;;
43511;SDS011;34054;52.100;5.116;2022-08-01T01:33:40;8.35;;;6.63;;
43511;SDS011;34054;52.100;5.116;2022-08-01T01:34:15;7.68;;;5.85;;
43511;SDS011;34054;52.100;5.116;2022-08-01T01:34:50;6.88;;;5.22;;
43511;SDS011;34054;52.100;5.116;2022-08-01T01:35:26;11.25;;;7.13;;
43511;SDS011;34054;52.100;5.116;2022-08-01T01:36:05;9.98;;;5.50;;
43511;SDS011;34054;52.100;5.116;2022-08-01T01:36:42;8.23;;;6.63;;
43511;SDS011;34054;52.100;5.116;2022-08-01T01:37:17;9.52;;;6.82;;
43511;SDS011;34054;52.100;5.116;2022-08-01T01:37:56;6.68;;;5.95;;
43511;SDS011;34054;52.100;5.116;2022-08-01T01:38:34;8.23;;;7.43;;
43511;SDS011;34054;52.100;5.116;2022-08-01T01:39:12;8.63;;;7.70;;
43511;SDS011;34054;52.100;5.116;2022-08-01T01:39:48;9.77;;;7.50;;
43511;SDS011;34054;52.100;5.116;2022-08-01T01:40:22;7.05;;;5.25;;
43511;SDS011;34054;52.100;5.116;2022-08-01T01:40:56;8.70;;;7.32;;
43511;SDS011;34054;52.100;5.116;2022-08-01T01:41:30;7.82;;;7.03;;
43511;SDS011;34054;52.100;5.116;2022-08-01T01:42:03;8.10;;;6.18;;
43511;SDS011;34054;52.100;5.116;2022-08-01T01:42:38;8.25;;;6.22;;
43511;SDS011;34054;52.100;5.116;2022-08-01T01:43:12;7.45;;;5.53;;
43511;SDS011;34054;52.100;5.116;2022-08-01T01:43:47;5.97;;;5.28;;
43511;SDS011;34054;52.100;5.116;2022-08-01T01:44:23;9.93;;;6.72;;
43511;SDS011;34054;52.100;5.116;2022-08-01T01:44:58;8.32;;;6.20;;
43511;SDS011;34054;52.100;5.116;2022-08-01T01:45:36;8.55;;;6.28;;
43511;SDS011;34054;52.100;5.116;2022-08-01T01:46:11;10.82;;;6.63;;
43511;SDS011;34054;52.100;5.116;2022-08-01T01:46:48;7.30;;;5.80;;
43511;SDS011;34054;52.100;5.116;2022-08-01T01:47:23;8.88;;;6.97;;
43511;SDS011;34054;52.100;5.116;2022-08-01T01:47:59;6.78;;;6.18;;
43511;SDS011;34054;52.100;5.116;2022-08-01T01:48:33;8.00;;;6.13;;
43511;SDS011;34054;52.100;5.116;2022-08-01T01:49:08;9.75;;;7.25;;
43511;SDS011;34054;52.100;5.116;2022-08-01T01:49:43;7.68;;;5.88;;
43511;SDS011;34054;52.100;5.116;2022-08-01T01:50:19;11.85;;;8.77;;
43511;SDS011;34054;52.100;5.116;2022-08-01T01:50:52;16.98;;;8.80;;
43511;SDS011;34054;52.100;5.116;2022-08-01T01:51:27;10.15;;;6.57;;
43511;SDS011;34054;52.100;5.116;2022-08-01T01:52:01;7.72;;;6.95;;
43511;SDS011;34054;52.100;5.116;2022-08-01T01:52:34;8.27;;;7.00;;
43511;SDS011;34054;52.100;5.116;2022-08-01T01:53:12;9.98;;;7.40;;
43511;SDS011;34054;52.100;5.116;2022-08-01T01:53:47;13.50;;;8.77;;
43511;SDS011;34054;52.100;5.116;2022-08-01T01:54:22;10.05;;;6.57;;
43511;SDS011;34054;52.100;5.116;2022-08-01T01:55:01;7.53;;;6.43;;
43511;SDS011;34054;52.100;5.116;2022-08-01T01:55:38;10.05;;;8.15;;
43511;SDS011;34054;52.100;5.116;2022-08-01T01:56:12;9.18;;;7.40;;
43511;SDS011;34054;52.100;5.116;2022-08-01T01:56:49;9.05;;;7.60;;
43511;SDS011;34054;52.100;5.116;2022-08-01T01:57:22;9.40;;;7.72;;
43511;SDS011;34054;52.100;5.116;2022-08-01T01:57:57;7.13;;;5.30;;
43511;SDS011;34054;52.100;5.116;2022-08-01T01:58:31;7.03;;;6.40;;
43511;SDS011;34054;52.100;5.116;2022-08-01T01:59:08;6.95;;;6.03;;
43511;SDS011;34054;52.100;5.116;2022-08-01T01:59:41;5.65;;;4.80;;
43511;SDS011;34054;52.100;5.116;2022-08-01T02:00:17;9.65;;;5.55;;
43511;SDS011;34054;52.100;5.116;2022-08-01T02:00:50;12.27;;;5.50;;
43511;SDS011;34054;52.100;5.116;2022-08-01T02:01:27;14.57;;;6.57;;
43511;SDS011;34054;52.100;5.116;2022-08-01T02:02:03;6.72;;;5.80;;
43511;SDS011;34054;52.100;5.116;2022-08-01T02:02:37;7.82;;;5.13;;
43511;SDS011;34054;52.100;5.116;2022-08-01T02:03:11;5.35;;;4.28;;
43511;SDS011;34054;52.100;5.116;2022-08-01T02:03:46;7.07;;;5.93;;
43511;SDS011;34054;52.100;5.116;2022-08-01T02:04:22;9.98;;;5.80;;
43511;SDS011;34054;52.100;5.116;2022-08-01T02:04:56;7.75;;;6.68;;
43511;SDS011;34054;52.100;5.116;2022-08-01T02:05:30;5.43;;;4.93;;
43511;SDS011;34054;52.100;5.116;2022-08-01T02:06:05;6.53;;;5.35;;
43511;SDS011;34054;52.100;5.116;2022-08-01T02:06:38;8.30;;;5.13;;
43511;SDS011;34054;52.100;5.116;2022-08-01T02:07:22;7.03;;;4.88;;
43511;SDS011;34054;52.100;5.116;2022-08-01T02:07:58;6.43;;;4.68;;
43511;SDS011;34054;52.100;5.116;2022-08-01T02:08:30;6.68;;;5.22;;
43511;SDS011;34054;52.100;5.116;2022-08-01T02:09:06;7.07;;;6.15;;
43511;SDS011;34054;52.100;5.116;2022-08-01T02:09:41;7.22;;;5.90;;
43511;SDS011;34054;52.100;5.116;2022-08-01T02:10:15;7.05;;;4.75;;
43511;SDS011;34054;52.100;5.116;2022-08-01T02:10:49;12.93;;;5.63;;
43511;SDS011;34054;52.100;5.116;2022-08-01T02:11:42;7.57;;;5.43;;
43511;SDS011;34054;52.100;5.116;2022-08-01T02:12:18;6.82;;;5.65;;
43511;SDS011;34054;52.100;5.116;2022-08-01T02:12:52;6.75;;;5.95;;
43511;SDS011;34054;52.100;5.116;2022-08-01T02:13:25;8.48;;;6.85;;
43511;SDS011;34054;52.100;5.116;2022-08-01T02:13:59;9.98;;;6.97;;
43511;SDS011;34054;52.100;5.116;2022-08-01T02:14:33;6.47;;;4.80;;
43511;SDS011;34054;52.100;5.116;2022-08-01T02:15:09;5.60;;;4.35;;
43511;SDS011;34054;52.100;5.116;2022-08-01T02:15:43;6.45;;;5.00;;
43511;SDS011;34054;52.100;5.116;2022-08-01T02:16:16;5.30;;;4.80;;
43511;SDS011;34054;52.100;5.116;2022-08-01T02:16:50;6.25;;;4.30;;
43511;SDS011;34054;52.100;5.116;2022-08-01T02:17:21;8.30;;;5.28;;
43511;SDS011;34054;52.100;5.116;2022-08-01T02:17:57;5.63;;;3.97;;
43511;SDS011;34054;52.100;5.116;2022-08-01T02:18:31;5.00;;;3.88;;
43511;SDS011;34054;52.100;5.116;2022-08-01T02:19:03;10.90;;;6.45;;
43511;SDS011;34054;52.100;5.116;2022-08-01T02:19:36;5.30;;;4.15;;
43511;SDS011;34054;52.100;5.116;2022-08-01T02:20:09;8.02;;;5.68;;
43511;SDS011;34054;52.100;5.116;2022-08-01T02:20:43;4.88;;;4.47;;
43511;SDS011;34054;52.100;5.116;2022-08-01T02:21:19;4.78;;;3.63;;
43511;SDS011;34054;52.100;5.116;2022-08-01T02:21:59;4.97;;;4.03;;
43511;SDS011;34054;52.100;5.116;2022-08-01T02:22:37;6.72;;;5.63;;
43511;SDS011;34054;52.100;5.116;2022-08-01T02:23:16;5.75;;;4.30;;
43511;SDS011;34054;52.100;5.116;2022-08-01T02:23:49;6.18;;;4.35;;
43511;SDS011;34054;52.100;5.116;2022-08-01T02:24:24;5.50;;;4.13;;
43511;SDS011;34054;52.100;5.116;2022-08-01T02:25:09;3.25;;;2.63;;
43511;SDS011;34054;52.100;5.116;2022-08-01T02:25:52;7.28;;;4.20;;
43511;SDS011;34054;52.100;5.116;2022-08-01T02:26:28;3.47;;;3.17;;
43511;SDS011;34054;52.100;5.116;2022-08-01T02:27:05;4.60;;;4.05;;
43511;SDS011;34054;52.100;5.116;2022-08-01T02:27:42;10.25;;;4.63;;
43511;SDS011;34054;52.100;5.116;2022-08-01T02:28:22;7.53;;;5.57;;
43511;SDS011;34054;52.100;5.116;2022-08-01T02:29:02;6.45;;;4.35;;
43511;SDS011;34054;52.100;5.116;2022-08-01T02:29:39;8.82;;;6.15;;
43511;SDS011;34054;52.100;5.116;2022-08-01T02:30:18;6.18;;;5.57;;
43511;SDS011;34054;52.100;5.116;2022-08-01T02:30:51;11.30;;;4.45;;
43511;SDS011;34054;52.100;5.116;2022-08-01T02:31:22;4.65;;;3.50;;
43511;SDS011;34054;52.100;5.116;2022-08-01T02:31:55;6.13;;;5.50;;
43511;SDS011;34054;52.100;5.116;2022-08-01T02:32:30;4.78;;;4.13;;
43511;SDS011;34054;52.100;5.116;2022-08-01T02:33:08;5.80;;;4.00;;
43511;SDS011;34054;52.100;5.116;2022-08-01T02:33:52;9.48;;;4.47;;
43511;SDS011;34054;52.100;5.116;2022-08-01T02:34:33;5.22;;;3.88;;
43511;SDS011;34054;52.100;5.116;2022-08-01T02:35:09;6.13;;;4.22;;
43511;SDS011;34054;52.100;5.116;2022-08-01T02:35:45;5.20;;;4.70;;
43511;SDS011;34054;52.100;5.116;2022-08-01T02:36:25;5.45;;;4.00;;
43511;SDS011;34054;52.100;5.116;2022-08-01T02:37:01;5.82;;;4.57;;
43511;SDS011;34054;52.100;5.116;2022-08-01T02:37:36;5.63;;;4.57;;
43511;SDS011;34054;52.100;5.116;2022-08-01T02:38:10;4.45;;;3.42;;
43511;SDS011;34054;52.100;5.116;2022-08-01T02:38:46;4.18;;;3.33;;
43511;SDS011;34054;52.100;5.116;2022-08-01T02:39:19;5.80;;;4.20;;
43511;SDS011;34054;52.100;5.116;2022-08-01T02:39:56;7.03;;;4.53;;
43511;SDS011;34054;52.100;5.116;2022-08-01T02:40:32;11.60;;;4.18;;
43511;SDS011;34054;52.100;5.116;2022-08-01T02:41:12;12.68;;;6.22;;
43511;SDS011;34054;52.100;5.116;2022-08-01T02:41:50;6.55;;;5.60;;
43511;SDS011;34054;52.100;5.116;2022-08-01T02:42:31;4.47;;;3.70;;
43511;SDS011;34054;52.100;5.116;2022-08-01T02:43:09;5.35;;;4.00;;
43511;SDS011;34054;52.100;5.116;2022-08-01T02:43:44;5.10;;;4.43;;
43511;SDS011;34054;52.100;5.116;2022-08-01T02:44:23;3.28;;;2.65;;
43511;SDS011;34054;52.100;5.116;2022-08-01T02:45:02;4.32;;;3.63;;
43511;SDS011;34054;52.100;5.116;2022-08-01T02:45:42;4.28;;;3.80;;
43511;SDS011;34054;52.100;5.116;2022-08-01T02:46:20;4.45;;;3.80;;
43511;SDS011;34054;52.100;5.116;2022-08-01T02:46:57;9.23;;;5.05;;
43511;SDS011;34054;52.100;5.116;2022-08-01T02:47:33;8.30;;;5.00;;
43511;SDS011;34054;52.100;5.116;2022-08-01T02:48:09;5.55;;;4.07;;
43511;SDS011;34054;52.100;5.116;2022-08-01T02:48:44;3.67;;;3.33;;
43511;SDS011;34054;52.100;5.116;2022-08-01T02:49:19;3.50;;;2.95;;
43511;SDS011;34054;52.100;5.116;2022-08-01T02:49:53;11.82;;;5.13;;
43511;SDS011;34054;52.100;5.116;2022-08-01T02:50:26;7.65;;;5.45;;
43511;SDS011;34054;52.100;5.116;2022-08-01T02:51:03;7.88;;;4.32;;
43511;SDS011;34054;52.100;5.116;2022-08-01T02:51:37;6.38;;;4.70;;
43511;SDS011;34054;52.100;5.116;2022-08-01T02:52:12;12.95;;;3.45;;
43511;SDS011;34054;52.100;5.116;2022-08-01T02:52:48;7.60;;;4.53;;
43511;SDS011;34054;52.100;5.116;2022-08-01T02:53:24;7.30;;;4.82;;
43511;SDS011;34054;52.100;5.116;2022-08-01T02:54:02;12.40;;;4.75;;
43511;SDS011;34054;52.100;5.116;2022-08-01T02:54:38;9.00;;;3.90;;
43511;SDS011;34054;52.100;5.116;2022-08-01T02:55:14;4.93;;;4.38;;
43511;SDS011;34054;52.100;5.116;2022-08-01T02:55:50;4.10;;;3.70;;
43511;SDS011;34054;52.100;5.116;2022-08-01T02:56:24;6.47;;;4.35;;
43511;SDS011;34054;52.100;5.116;2022-08-01T02:57:05;5.55;;;4.15;;
43511;SDS011;34054;52.100;5.116;2022-08-01T02:57:40;4.20;;;3.60;;
43511;SDS011;34054;52.100;5.116;2022-08-01T02:58:18;8.00;;;3.72;;
43511;SDS011;34054;52.100;5.116;2022-08-01T02:58:54;7.88;;;4.90;;
43511;SDS011;34054;52.100;5.116;2022-08-01T02:59:27;7.05;;;5.68;;
43511;SDS011;34054;52.100;5.116;2022-08-01T03:00:01;5.43;;;4.93;;
43511;SDS011;34054;52.100;5.116;2022-08-01T03:00:35;7.25;;;5.30;;
43511;SDS011;34054;52.100;5.116;2022-08-01T03:01:10;5.15;;;4.65;;
43511;SDS011;34054;52.100;5.116;2022-08-01T03:01:44;3.90;;;3.42;;
43511;SDS011;34054;52.100;5.116;2022-08-01T03:02:18;5.72;;;4.55;;
43511;SDS011;34054;52.100;5.116;2022-08-01T03:02:54;3.60;;;3.22;;
43511;SDS011;34054;52.100;5.116;2022-08-01T03:03:28;8.60;;;6.22;;
43511;SDS011;34054;52.100;5.116;2022-08-01T03:04:02;5.60;;;5.10;;
43511;SDS011;34054;52.100;5.116;2022-08-01T03:04:36;6.53;;;4.72;;
43511;SDS011;34054;52.100;5.116;2022-08-01T03:05:12;12.23;;;4.38;;
43511;SDS011;34054;52.100;5.116;2022-08-01T03:05:46;6.88;;;5.70;;
43511;SDS011;34054;52.100;5.116;2022-08-01T03:06:20;8.00;;;6.05;;
43511;SDS011;34054;52.100;5.116;2022-08-01T03:06:54;7.82;;;6.63;;
43511;SDS011;34054;52.100;5.116;2022-08-01T03:07:29;6.38;;;4.25;;
43511;SDS011;34054;52.100;5.116;2022-08-01T03:08:04;8.68;;;6.00;;
43511;SDS011;34054;52.100;5.116;2022-08-01T03:08:39;9.05;;;6.45;;
43511;SDS011;34054;52.100;5.116;2022-08-01T03:09:13;6.43;;;5.32;;
43511;SDS011;34054;52.100;5.116;2022-08-01T03:09:47;5.70;;;5.18;;
43511;SDS011;34054;52.100;5.116;2022-08-01T03:10:23;6.13;;;5.13;;
43511;SDS011;34054;52.100;5.116;2022-08-01T03:10:59;6.60;;;4.45;;
43511;SDS011;34054;52.100;5.116;2022-08-01T03:11:32;4.82;;;4.35;;
43511;SDS011;34054;52.100;5.116;2022-08-01T03:12:13;6.85;;;5.30;;
43511;SDS011;34054;52.100;5.116;2022-08-01T03:12:49;6.25;;;5.53;;
43511;SDS011;34054;52.100;5.116;2022-08-01T03:13:23;5.60;;;4.75;;
43511;SDS011;34054;52.100;5.116;2022-08-01T03:13:56;8.23;;;6.32;;
43511;SDS011;34054;52.100;5.116;2022-08-01T03:14:36;10.05;;;4.38;;
43511;SDS011;34054;52.100;5.116;2022-08-01T03:15:12;7.75;;;6.80;;
43511;SDS011;34054;52.100;5.116;2022-08-01T03:15:46;7.60;;;5.85;;
43511;SDS011;34054;52.100;5.116;2022-08-01T03:16:21;7.93;;;4.18;;
43511;SDS011;34054;52.100;5.116;2022-08-01T03:16:57;5.18;;;4.63;;
43511;SDS011;34054;52.100;5.116;2022-08-01T03:17:31;6.72;;;4.50;;
43511;SDS011;34054;52.100;5.116;2022-08-01T03:18:06;5.80;;;4.30;;
43511;SDS011;34054;52.100;5.116;2022-08-01T03:18:41;4.50;;;3.42;;
43511;SDS011;34054;52.100;5.116;2022-08-01T03:19:16;8.23;;;6.32;;
43511;SDS011;34054;52.100;5.116;2022-08-01T03:19:53;10.25;;;6.75;;
43511;SDS011;34054;52.100;5.116;2022-08-01T03:20:29;10.13;;;6.35;;
43511;SDS011;34054;52.100;5.116;2022-08-01T03:21:03;6.55;;;5.38;;
43511;SDS011;34054;52.100;5.116;2022-08-01T03:21:37;5.10;;;4.60;;
43511;SDS011;34054;52.100;5.116;2022-08-01T03:22:13;5.68;;;3.90;;
43511;SDS011;34054;52.100;5.116;2022-08-01T03:22:47;6.32;;;5.70;;
43511;SDS011;34054;52.100;5.116;2022-08-01T03:23:22;6.20;;;4.18;;
43511;SDS011;34054;52.100;5.116;2022-08-01T03:23:56;5.75;;;5.15;;
43511;SDS011;34054;52.100;5.116;2022-08-01T03:24:31;12.73;;;5.25;;
43511;SDS011;34054;52.100;5.116;2022-08-01T03:25:07;10.57;;;4.88;;
43511;SDS011;34054;52.100;5.116;2022-08-01T03:25:41;6.03;;;5.47;;
43511;SDS011;34054;52.100;5.116;2022-08-01T03:26:15;5.05;;;3.90;;
43511;SDS011;34054;52.100;5.116;2022-08-01T03:26:50;10.50;;;4.40;;
43511;SDS011;34054;52.100;5.116;2022-08-01T03:27:27;10.48;;;5.35;;
43511;SDS011;34054;52.100;5.116;2022-08-01T03:28:02;5.15;;;4.22;;
43511;SDS011;34054;52.100;5.116;2022-08-01T03:28:36;5.03;;;3.90;;
43511;SDS011;34054;52.100;5.116;2022-08-01T03:29:13;7.22;;;5.18;;
43511;SDS011;34054;52.100;5.116;2022-08-01T03:29:50;7.35;;;5.35;;
43511;SDS011;34054;52.100;5.116;2022-08-01T03:30:26;6.03;;;4.43;;
43511;SDS011;34054;52.100;5.116;2022-08-01T03:31:00;4.82;;;4.10;;
43511;SDS011;34054;52.100;5.116;2022-08-01T03:31:36;5.25;;;3.72;;
43511;SDS011;34054;52.100;5.116;2022-08-01T03:32:13;8.07;;;4.22;;
43511;SDS011;34054;52.100;5.116;2022-08-01T03:32:48;7.05;;;5.00;;
43511;SDS011;34054;52.100;5.116;2022-08-01T03:33:20;5.22;;;3.70;;
43511;SDS011;34054;52.100;5.116;2022-08-01T03:33:52;8.40;;;6.30;;